Time;durP1;ratioP1;P1;durP2;ratioP2;P2;SDS_P1;SDS_P2;PMS_P1;PMS_P2;Temp;Humidity;BMP_temperature;BMP_pressure;BME280_temperature;BME280_humidity;BME280_pressure;Samples;Min_cycle;Max_cycle;Signal;HPM_P1;HPM_P2
2023/12/15 00:01:28;;;;;;;15.80;8.80;;;5.60;99.90;;;;;;5067240;28;20259;-85
2023/12/15 00:03:54;;;;;;;16.20;9.45;;;5.70;99.90;;;;;;5050116;28;20039;-85
2023/12/15 00:06:19;;;;;;;17.35;9.57;;;5.70;99.90;;;;;;5050498;28;20186;-85
2023/12/15 00:08:45;;;;;;;17.50;9.05;;;5.70;99.90;;;;;;5049592;28;20033;-85
2023/12/15 00:11:11;;;;;;;18.63;9.10;;;5.70;99.90;;;;;;5049475;28;20020;-85
2023/12/15 00:13:37;;;;;;;17.40;9.73;;;5.70;99.90;;;;;;5033796;28;20057;-85
2023/12/15 00:16:02;;;;;;;15.68;9.27;;;5.70;99.90;;;;;;5049976;28;20078;-85
2023/12/15 00:18:28;;;;;;;18.00;9.82;;;5.80;99.90;;;;;;5064587;28;20388;-85
2023/12/15 00:20:54;;;;;;;17.05;9.52;;;5.80;99.90;;;;;;5083819;28;20039;-84
2023/12/15 00:23:20;;;;;;;16.73;9.85;;;5.80;99.90;;;;;;5049853;28;20033;-84
2023/12/15 00:25:46;;;;;;;16.60;9.88;;;5.80;99.90;;;;;;5049844;28;20087;-85
2023/12/15 00:28:12;;;;;;;17.17;10.05;;;5.70;99.90;;;;;;5050078;28;20020;-84
2023/12/15 00:30:38;;;;;;;15.90;9.52;;;5.80;99.90;;;;;;5069881;28;20055;-85
2023/12/15 00:33:03;;;;;;;17.33;10.50;;;5.80;99.90;;;;;;5069792;28;20032;-84
2023/12/15 00:35:29;;;;;;;17.10;9.80;;;5.80;99.90;;;;;;5060832;28;20103;-85
2023/12/15 00:37:55;;;;;;;18.00;9.73;;;5.90;99.90;;;;;;5052938;28;20219;-85
2023/12/15 00:40:22;;;;;;;18.38;10.35;;;5.80;99.90;;;;;;5068846;28;20062;-85
2023/12/15 00:42:48;;;;;;;17.50;9.90;;;5.80;99.90;;;;;;5069719;28;20130;-84
2023/12/15 00:45:14;;;;;;;19.88;10.80;;;5.80;99.90;;;;;;5052764;28;20277;-85
2023/12/15 00:47:40;;;;;;;18.40;9.93;;;5.90;99.90;;;;;;5051357;28;20047;-84
2023/12/15 00:50:07;;;;;;;19.02;11.07;;;5.90;99.90;;;;;;5072592;28;20051;-85
2023/12/15 00:52:33;;;;;;;19.00;10.80;;;5.90;99.90;;;;;;5078751;28;20301;-84
2023/12/15 00:54:58;;;;;;;19.52;10.60;;;5.90;99.90;;;;;;5084996;28;20035;-84
2023/12/15 00:57:24;;;;;;;18.60;11.45;;;6.40;99.90;;;;;;5085863;28;20069;-84
2023/12/15 00:59:50;;;;;;;19.45;10.93;;;5.90;99.90;;;;;;5077280;28;20154;-85
2023/12/15 01:02:15;;;;;;;16.88;10.52;;;6.00;99.90;;;;;;5065745;28;20424;-85
2023/12/15 01:04:41;;;;;;;19.17;11.70;;;6.00;99.90;;;;;;5066250;28;20028;-84
2023/12/15 01:07:07;;;;;;;19.80;11.57;;;6.00;99.90;;;;;;5052828;28;20142;-85
2023/12/15 01:09:33;;;;;;;19.52;10.43;;;6.00;99.90;;;;;;5053109;28;20028;-85
2023/12/15 01:11:59;;;;;;;18.65;11.10;;;6.00;99.90;;;;;;5069458;28;20038;-85
2023/12/15 01:14:24;;;;;;;18.92;10.95;;;6.00;99.90;;;;;;5054415;28;20306;-85
2023/12/15 01:16:50;;;;;;;20.00;11.18;;;6.10;99.90;;;;;;5052920;28;20079;-85
2023/12/15 01:19:17;;;;;;;19.80;10.70;;;6.10;99.90;;;;;;5067983;28;20204;-84
2023/12/15 01:21:44;;;;;;;19.63;12.10;;;6.10;99.90;;;;;;5102864;28;20036;-84
2023/12/15 01:24:11;;;;;;;20.92;11.65;;;6.10;99.90;;;;;;5068862;28;20077;-85
2023/12/15 01:26:37;;;;;;;21.75;12.15;;;6.10;99.90;;;;;;5023155;28;20166;-85
2023/12/15 01:29:03;;;;;;;19.88;11.43;;;6.10;99.90;;;;;;5068453;28;20107;-84
2023/12/15 01:31:28;;;;;;;20.65;13.32;;;6.10;99.90;;;;;;5084729;28;20048;-85
2023/12/15 01:33:55;;;;;;;20.30;12.00;;;6.10;99.90;;;;;;5051915;28;20093;-85
2023/12/15 01:36:20;;;;;;;20.65;13.57;;;6.10;99.90;;;;;;5070682;28;20249;-85
2023/12/15 01:38:46;;;;;;;20.23;12.60;;;6.10;99.90;;;;;;5085564;28;20055;-85
2023/12/15 01:41:12;;;;;;;20.52;12.43;;;6.10;99.90;;;;;;5051670;28;20020;-85
2023/12/15 01:43:37;;;;;;;22.50;11.63;;;6.20;99.90;;;;;;5069176;28;20077;-84
2023/12/15 01:46:03;;;;;;;20.98;11.98;;;6.20;99.90;;;;;;5102369;28;20076;-84
2023/12/15 01:48:32;;;;;;;22.55;13.05;;;6.20;99.90;;;;;;5085848;28;20182;-85
2023/12/15 01:50:58;;;;;;;19.73;11.60;;;6.20;99.90;;;;;;5084322;28;20035;-85
2023/12/15 01:53:24;;;;;;;21.35;12.07;;;6.20;99.90;;;;;;5054954;28;20032;-85
2023/12/15 01:55:49;;;;;;;23.77;13.70;;;6.20;99.90;;;;;;5068782;28;20036;-85
2023/12/15 01:58:15;;;;;;;23.80;13.70;;;6.20;99.90;;;;;;5063558;28;20021;-85
2023/12/15 02:00:41;;;;;;;23.92;13.93;;;6.30;99.90;;;;;;5049104;28;20048;-85
2023/12/15 02:03:07;;;;;;;22.55;13.10;;;6.20;99.90;;;;;;5063573;28;20048;-84
2023/12/15 02:05:33;;;;;;;23.25;13.85;;;6.30;99.90;;;;;;5067765;28;20035;-85
2023/12/15 02:07:59;;;;;;;23.20;14.15;;;6.30;99.90;;;;;;5082822;28;20036;-85
2023/12/15 02:10:25;;;;;;;26.08;13.88;;;6.60;99.90;;;;;;5049441;28;20028;-84
2023/12/15 02:12:51;;;;;;;24.13;14.25;;;6.30;99.90;;;;;;5076341;28;20378;-85
2023/12/15 02:15:17;;;;;;;26.52;14.57;;;6.40;99.90;;;;;;5066481;28;20103;-85
2023/12/15 02:17:43;;;;;;;23.73;14.45;;;6.40;99.90;;;;;;5077658;28;20055;-85
2023/12/15 02:20:09;;;;;;;26.20;14.30;;;6.30;99.90;;;;;;5063514;28;20069;-85
2023/12/15 02:22:35;;;;;;;25.23;14.13;;;6.40;99.90;;;;;;5047382;28;20103;-84
2023/12/15 02:25:01;;;;;;;26.27;14.55;;;6.40;99.90;;;;;;5058572;28;20040;-84
2023/12/15 02:27:26;;;;;;;25.88;14.35;;;6.40;99.90;;;;;;5080031;28;20027;-85
2023/12/15 02:29:52;;;;;;;28.67;14.18;;;6.40;99.90;;;;;;5041009;28;20415;-85
2023/12/15 02:32:18;;;;;;;24.90;15.07;;;6.50;99.90;;;;;;5045509;28;20095;-85
2023/12/15 02:34:43;;;;;;;26.35;14.43;;;6.50;99.90;;;;;;5059151;28;20064;-85
2023/12/15 02:37:09;;;;;;;25.75;14.65;;;6.40;99.90;;;;;;5078247;28;20059;-84
2023/12/15 02:39:38;;;;;;;27.08;14.18;;;6.50;99.90;;;;;;5073977;28;20044;-85
2023/12/15 02:42:05;;;;;;;25.73;14.80;;;6.50;99.90;;;;;;5075208;28;20051;-85
2023/12/15 02:44:31;;;;;;;27.27;14.43;;;6.50;99.90;;;;;;5059917;28;20041;-85
2023/12/15 02:46:56;;;;;;;28.17;14.95;;;6.50;99.90;;;;;;5066950;28;20081;-84
2023/12/15 02:49:22;;;;;;;27.35;15.50;;;6.50;99.90;;;;;;5052673;28;20024;-85
2023/12/15 02:51:48;;;;;;;31.88;16.05;;;6.50;99.90;;;;;;5075268;28;20025;-84
2023/12/15 02:54:13;;;;;;;29.40;15.70;;;6.50;99.90;;;;;;5058449;28;20035;-85
2023/12/15 02:56:39;;;;;;;30.13;15.20;;;6.50;99.90;;;;;;5042521;28;20390;-84
2023/12/15 02:59:05;;;;;;;26.80;14.50;;;6.50;99.90;;;;;;5045005;28;20099;-84
2023/12/15 03:01:30;;;;;;;30.33;15.68;;;6.50;99.90;;;;;;5073046;28;20068;-85
2023/12/15 03:03:56;;;;;;;36.38;15.68;;;6.50;99.90;;;;;;5044163;28;20024;-85
2023/12/15 03:06:22;;;;;;;28.08;15.15;;;6.50;99.90;;;;;;5040933;28;20060;-85
2023/12/15 03:08:48;;;;;;;24.95;14.27;;;6.50;99.90;;;;;;5077903;28;20226;-85
2023/12/15 03:11:14;;;;;;;24.15;14.02;;;6.50;99.90;;;;;;5060775;28;20031;-85
2023/12/15 03:13:40;;;;;;;27.95;14.00;;;6.50;99.90;;;;;;5044050;28;20025;-84
2023/12/15 03:16:11;;;;;;;26.80;13.68;;;6.50;99.90;;;;;;5060898;28;20530;-84
2023/12/15 03:18:37;;;;;;;26.58;14.23;;;6.50;99.90;;;;;;5070563;28;20101;-84
2023/12/15 03:21:03;;;;;;;27.85;14.10;;;6.50;99.90;;;;;;5078031;28;20040;-84
2023/12/15 03:23:29;;;;;;;24.65;13.52;;;6.40;99.90;;;;;;5075768;28;20301;-85
2023/12/15 03:25:55;;;;;;;24.50;14.50;;;6.50;99.90;;;;;;5090744;28;20032;-85
2023/12/15 03:28:20;;;;;;;26.88;13.88;;;6.60;99.90;;;;;;5042714;28;20091;-84
2023/12/15 03:30:46;;;;;;;26.50;14.15;;;6.40;99.90;;;;;;5077199;28;20056;-85
2023/12/15 03:33:12;;;;;;;27.75;12.98;;;6.30;99.90;;;;;;5044071;28;20128;-85
2023/12/15 03:35:38;;;;;;;24.15;13.88;;;6.30;99.90;;;;;;5039185;28;20053;-85
2023/12/15 03:38:05;;;;;;;22.58;13.18;;;6.20;99.90;;;;;;5043425;28;20060;-85
2023/12/15 03:40:30;;;;;;;24.08;13.65;;;6.20;99.90;;;;;;5074284;28;20365;-85
2023/12/15 03:42:56;;;;;;;24.92;13.45;;;6.10;99.90;;;;;;5059883;28;20055;-85
2023/12/15 03:45:23;;;;;;;21.27;12.52;;;6.10;99.90;;;;;;5059928;28;20060;-85
2023/12/15 03:47:50;;;;;;;26.35;13.05;;;6.60;99.90;;;;;;5061540;28;20032;-85
2023/12/15 03:50:16;;;;;;;26.00;12.70;;;6.10;99.90;;;;;;5078751;28;20029;-85
2023/12/15 03:52:41;;;;;;;24.73;14.27;;;6.50;99.90;;;;;;5041633;28;20029;-85
2023/12/15 03:55:07;;;;;;;22.15;13.30;;;6.10;99.90;;;;;;5078165;28;20048;-85
2023/12/15 03:57:33;;;;;;;24.75;13.23;;;6.10;99.90;;;;;;5067555;28;20036;-85
2023/12/15 03:59:59;;;;;;;25.42;13.45;;;6.10;99.90;;;;;;5067159;28;20029;-85
2023/12/15 04:02:24;;;;;;;21.30;12.77;;;6.10;99.90;;;;;;5066537;28;20032;-84
2023/12/15 04:04:50;;;;;;;23.90;13.43;;;6.10;99.90;;;;;;5062991;28;20109;-85
2023/12/15 04:07:16;;;;;;;22.52;11.35;;;6.00;99.90;;;;;;5083945;28;20032;-84
2023/12/15 04:09:42;;;;;;;22.38;13.75;;;6.10;99.90;;;;;;5082203;28;20347;-85
2023/12/15 04:12:08;;;;;;;27.38;13.38;;;6.10;99.90;;;;;;5053336;28;20155;-84
2023/12/15 04:14:33;;;;;;;23.55;12.75;;;6.10;99.90;;;;;;5048973;28;20029;-85
2023/12/15 04:17:00;;;;;;;24.10;12.52;;;6.10;99.90;;;;;;5079567;28;20075;-85
2023/12/15 04:19:26;;;;;;;22.75;12.60;;;6.10;99.90;;;;;;5046548;28;20033;-86
2023/12/15 04:21:52;;;;;;;24.45;13.07;;;6.10;99.90;;;;;;5066185;28;20113;-85
2023/12/15 04:24:18;;;;;;;20.98;11.73;;;6.10;99.90;;;;;;5066610;28;20056;-85
2023/12/15 04:26:44;;;;;;;22.25;12.10;;;6.00;99.90;;;;;;5049774;28;20182;-85
2023/12/15 04:29:10;;;;;;;20.80;11.95;;;6.00;99.90;;;;;;5049680;28;20052;-85
2023/12/15 04:31:35;;;;;;;23.70;12.02;;;6.00;99.90;;;;;;5066672;28;20036;-85
2023/12/15 04:34:01;;;;;;;22.13;11.98;;;5.90;99.90;;;;;;5032394;28;20278;-84
2023/12/15 04:36:27;;;;;;;20.45;11.75;;;5.90;99.90;;;;;;5082501;28;20313;-85
2023/12/15 04:38:53;;;;;;;21.70;12.07;;;5.80;99.90;;;;;;5083083;28;20281;-84
2023/12/15 04:41:20;;;;;;;22.55;11.20;;;5.80;99.90;;;;;;5063802;28;20070;-85
2023/12/15 04:43:46;;;;;;;21.67;11.40;;;5.90;99.90;;;;;;5036387;28;20082;-84
2023/12/15 04:46:12;;;;;;;23.88;11.20;;;5.90;99.90;;;;;;5066004;28;20052;-84
2023/12/15 04:48:38;;;;;;;23.90;11.57;;;5.90;99.90;;;;;;5066197;28;20048;-84
2023/12/15 04:51:04;;;;;;;21.80;11.05;;;5.90;99.90;;;;;;5066493;28;20024;-85
2023/12/15 04:53:30;;;;;;;22.50;11.57;;;5.90;99.90;;;;;;5065827;28;20278;-85
2023/12/15 04:55:55;;;;;;;21.40;11.27;;;6.00;99.90;;;;;;5048829;28;20023;-85
2023/12/15 04:58:21;;;;;;;25.60;11.55;;;6.00;99.90;;;;;;5047220;28;20045;-85
2023/12/15 05:00:47;;;;;;;23.80;11.27;;;6.00;99.90;;;;;;5062599;28;20036;-84
2023/12/15 05:03:12;;;;;;;24.40;11.27;;;6.10;99.90;;;;;;5065384;28;20028;-85
2023/12/15 05:05:38;;;;;;;22.95;11.65;;;6.10;99.90;;;;;;5066994;28;20037;-85
2023/12/15 05:08:04;;;;;;;21.38;11.13;;;6.00;99.90;;;;;;5048886;28;20039;-85
2023/12/15 05:10:29;;;;;;;20.65;10.50;;;6.00;99.90;;;;;;5032106;28;20044;-85
2023/12/15 05:12:55;;;;;;;21.90;10.40;;;6.20;99.90;;;;;;5048561;28;20045;-84
2023/12/15 05:15:21;;;;;;;20.95;10.15;;;6.00;99.90;;;;;;5031119;28;20029;-84
2023/12/15 05:17:46;;;;;;;20.90;10.48;;;6.00;99.90;;;;;;5032428;28;20047;-85
2023/12/15 05:20:12;;;;;;;19.70;10.23;;;5.90;99.90;;;;;;5049447;28;20095;-84
2023/12/15 05:22:38;;;;;;;19.88;9.35;;;5.90;99.90;;;;;;5066012;28;20080;-85
2023/12/15 05:25:04;;;;;;;23.77;9.55;;;6.20;99.90;;;;;;5049272;28;20101;-85
2023/12/15 05:27:30;;;;;;;22.63;10.23;;;6.00;99.90;;;;;;5064705;28;20048;-84
2023/12/15 05:29:56;;;;;;;19.77;9.48;;;5.90;99.90;;;;;;5065106;28;20046;-84
2023/12/15 05:32:22;;;;;;;19.25;9.20;;;6.00;99.90;;;;;;5064216;28;20036;-85
2023/12/15 05:34:47;;;;;;;19.73;9.30;;;6.10;99.90;;;;;;5049082;28;20303;-85
2023/12/15 05:37:13;;;;;;;17.20;8.68;;;5.80;99.90;;;;;;5081363;28;20032;-84
2023/12/15 05:39:42;;;;;;;19.17;8.90;;;5.80;99.90;;;;;;5048287;28;20155;-84
2023/12/15 05:42:08;;;;;;;22.10;9.13;;;5.70;99.90;;;;;;5081186;28;20317;-85
2023/12/15 05:44:33;;;;;;;17.55;8.35;;;5.80;99.90;;;;;;5063859;28;20108;-85
2023/12/15 05:46:59;;;;;;;23.00;9.55;;;5.70;99.90;;;;;;5047924;28;20029;-85
2023/12/15 05:49:25;;;;;;;23.40;9.60;;;5.70;99.90;;;;;;5031582;28;20100;-85
2023/12/15 05:51:51;;;;;;;16.80;8.85;;;5.70;99.90;;;;;;5066019;28;20055;-84
2023/12/15 05:54:16;;;;;;;18.48;8.73;;;6.10;99.90;;;;;;5059824;28;20060;-85
2023/12/15 05:56:42;;;;;;;22.80;8.88;;;5.70;99.90;;;;;;5042655;28;20016;-84
2023/12/15 05:59:08;;;;;;;23.33;9.25;;;5.70;99.90;;;;;;5042629;28;20285;-85
2023/12/15 06:01:34;;;;;;;19.63;8.38;;;5.60;99.90;;;;;;5043488;28;20114;-85
2023/12/15 06:04:00;;;;;;;22.25;8.88;;;5.70;99.90;;;;;;5040953;28;20052;-84
2023/12/15 06:06:25;;;;;;;18.85;9.30;;;5.60;99.90;;;;;;5056702;28;20031;-84
2023/12/15 06:08:51;;;;;;;18.98;8.05;;;5.60;99.90;;;;;;5042539;28;20287;-84
2023/12/15 06:11:17;;;;;;;19.65;8.18;;;5.60;99.90;;;;;;5061469;28;20047;-84
2023/12/15 06:13:43;;;;;;;18.70;8.02;;;5.60;99.90;;;;;;5055611;28;20067;-83
2023/12/15 06:16:20;;;;;;;19.35;9.05;;;5.80;99.90;;;;;;5073127;28;20055;-84
2023/12/15 06:18:46;;;;;;;19.95;8.45;;;5.60;99.90;;;;;;5058039;28;20063;-84
2023/12/15 06:21:23;;;;;;;20.23;8.75;;;5.90;99.90;;;;;;5091638;28;20299;-84
2023/12/15 06:23:48;;;;;;;22.98;9.52;;;5.90;99.90;;;;;;5059951;28;20040;-84
2023/12/15 06:26:22;;;;;;;21.85;8.40;;;5.70;99.90;;;;;;5058206;28;20049;-85
2023/12/15 06:28:49;;;;;;;18.92;8.30;;;5.70;99.90;;;;;;5058624;28;20614;-84
2023/12/15 06:31:15;;;;;;;17.75;8.40;;;5.70;99.90;;;;;;5043675;28;20044;-85
2023/12/15 06:33:42;;;;;;;17.50;8.38;;;5.70;99.90;;;;;;5062922;28;20156;-85
2023/12/15 06:36:09;;;;;;;19.88;9.02;;;5.80;99.90;;;;;;5083016;28;20085;-84
2023/12/15 06:38:42;;;;;;;22.80;8.85;;;5.80;99.90;;;;;;5063232;28;20062;-84
2023/12/15 06:41:09;;;;;;;18.85;8.20;;;5.80;99.90;;;;;;5061666;28;20238;-84
2023/12/15 06:43:41;;;;;;;20.15;8.88;;;5.90;99.90;;;;;;5066101;28;20044;-84
2023/12/15 06:46:07;;;;;;;23.13;8.68;;;5.80;99.90;;;;;;5058640;28;20085;-84
2023/12/15 06:48:33;;;;;;;18.63;8.15;;;5.70;99.90;;;;;;5077106;28;20136;-85
2023/12/15 06:50:59;;;;;;;20.13;8.70;;;5.80;99.90;;;;;;5065084;28;20032;-84
2023/12/15 06:53:25;;;;;;;16.85;7.65;;;5.80;99.90;;;;;;5065050;28;20028;-85
2023/12/15 06:55:51;;;;;;;20.75;8.57;;;5.70;99.90;;;;;;5048502;28;20024;-84
2023/12/15 06:58:16;;;;;;;20.13;8.02;;;5.70;99.90;;;;;;5093505;28;20027;-84
2023/12/15 07:00:42;;;;;;;22.33;9.07;;;5.70;99.90;;;;;;5047943;28;20316;-84
2023/12/15 07:03:08;;;;;;;20.92;8.32;;;5.70;99.90;;;;;;5080004;28;20213;-84
2023/12/15 07:05:37;;;;;;;19.23;8.70;;;5.80;99.90;;;;;;5079623;28;20036;-85
2023/12/15 07:08:03;;;;;;;17.65;8.65;;;5.70;99.90;;;;;;5079489;28;20032;-84
2023/12/15 07:10:30;;;;;;;25.77;9.18;;;5.80;99.90;;;;;;5082250;28;20036;-84
2023/12/15 07:12:56;;;;;;;21.15;9.20;;;6.00;99.90;;;;;;5064205;28;20020;-84
2023/12/15 07:15:22;;;;;;;24.73;9.07;;;5.80;99.90;;;;;;5066174;28;20121;-85
2023/12/15 07:17:48;;;;;;;19.70;7.97;;;5.80;99.90;;;;;;5072358;28;20032;-84
2023/12/15 07:20:14;;;;;;;19.52;9.07;;;5.80;99.90;;;;;;5038606;28;20034;-84
2023/12/15 07:22:39;;;;;;;22.98;8.10;;;5.80;99.90;;;;;;5063578;28;20058;-84
2023/12/15 07:25:06;;;;;;;20.52;8.60;;;5.80;99.90;;;;;;5093248;28;20044;-84
2023/12/15 07:27:31;;;;;;;21.20;7.90;;;5.80;99.90;;;;;;5065890;28;20402;-85
2023/12/15 07:29:58;;;;;;;24.30;8.55;;;5.80;99.90;;;;;;5063546;28;20059;-85
2023/12/15 07:32:24;;;;;;;19.38;7.90;;;5.70;99.90;;;;;;5064164;28;20040;-85
2023/12/15 07:34:49;;;;;;;20.38;8.80;;;5.70;99.90;;;;;;5052500;28;20042;-84
2023/12/15 07:37:15;;;;;;;19.92;8.40;;;5.90;99.90;;;;;;5066074;28;20056;-84
2023/12/15 07:39:41;;;;;;;19.02;8.35;;;5.70;99.90;;;;;;5052230;28;20080;-85
2023/12/15 07:42:06;;;;;;;22.23;8.73;;;5.90;99.90;;;;;;5099778;28;20040;-84
2023/12/15 07:44:32;;;;;;;20.20;8.77;;;5.60;99.90;;;;;;5050331;28;20158;-84
2023/12/15 07:46:58;;;;;;;21.02;8.88;;;5.60;99.90;;;;;;5034799;28;20027;-84
2023/12/15 07:49:24;;;;;;;18.55;8.52;;;5.60;99.90;;;;;;5054164;28;20063;-84
2023/12/15 07:51:50;;;;;;;15.82;7.60;;;5.60;99.90;;;;;;5101619;28;20043;-86
2023/12/15 07:54:18;;;;;;;19.40;8.38;;;5.60;99.90;;;;;;5085679;28;20047;-84
2023/12/15 07:56:44;;;;;;;18.48;7.95;;;5.60;99.90;;;;;;5092496;28;20321;-85
2023/12/15 07:59:10;;;;;;;21.88;8.73;;;5.60;99.90;;;;;;5066304;28;20045;-85
2023/12/15 08:01:36;;;;;;;23.38;8.18;;;5.60;99.90;;;;;;5049997;28;20047;-84
2023/12/15 08:04:02;;;;;;;19.70;7.60;;;5.60;99.90;;;;;;5083468;28;20036;-84
2023/12/15 08:06:28;;;;;;;18.25;7.60;;;5.70;99.90;;;;;;5052472;28;20206;-84
2023/12/15 08:08:54;;;;;;;23.00;8.70;;;5.70;99.90;;;;;;5064273;28;20112;-84
2023/12/15 08:11:22;;;;;;;16.63;7.85;;;5.70;99.90;;;;;;5097659;28;20026;-84
2023/12/15 08:13:48;;;;;;;23.27;7.18;;;5.70;99.90;;;;;;5066440;28;20031;-84
2023/12/15 08:16:14;;;;;;;18.02;7.13;;;5.70;99.90;;;;;;5071425;28;20032;-84
2023/12/15 08:18:41;;;;;;;20.48;8.05;;;5.70;99.90;;;;;;5051563;28;20032;-84
2023/12/15 08:21:07;;;;;;;19.30;7.05;;;5.80;99.90;;;;;;5035774;28;20043;-84
2023/12/15 08:23:33;;;;;;;16.70;6.97;;;5.80;99.90;;;;;;5079500;28;20063;-84
2023/12/15 08:25:58;;;;;;;20.10;6.97;;;5.80;99.90;;;;;;5064517;28;20258;-84
2023/12/15 08:28:24;;;;;;;20.10;7.15;;;5.80;99.90;;;;;;5083285;28;20031;-84
2023/12/15 08:30:50;;;;;;;21.48;7.40;;;5.80;99.90;;;;;;5082696;28;20196;-84
2023/12/15 08:33:16;;;;;;;22.48;7.32;;;6.00;99.90;;;;;;5082635;28;20177;-84
2023/12/15 08:35:42;;;;;;;21.80;7.57;;;5.90;99.90;;;;;;5066090;28;20455;-84
2023/12/15 08:38:08;;;;;;;19.60;6.90;;;6.00;99.90;;;;;;5067900;28;20178;-84
2023/12/15 08:40:34;;;;;;;19.15;6.75;;;6.00;99.90;;;;;;5049727;28;20027;-84
2023/12/15 08:43:00;;;;;;;25.45;7.53;;;6.00;99.90;;;;;;5078854;28;20040;-84
2023/12/15 08:45:26;;;;;;;19.10;6.20;;;6.10;99.90;;;;;;5064444;28;20032;-85
2023/12/15 08:47:52;;;;;;;17.17;7.18;;;6.10;99.90;;;;;;5080689;28;20044;-85
2023/12/15 08:50:18;;;;;;;14.75;6.55;;;6.10;99.90;;;;;;5080899;28;20272;-84
2023/12/15 08:52:44;;;;;;;17.83;5.82;;;6.10;99.90;;;;;;5069120;28;20312;-84
2023/12/15 08:55:10;;;;;;;19.92;6.57;;;6.20;99.90;;;;;;5078614;28;20309;-84
2023/12/15 08:57:36;;;;;;;19.65;5.88;;;6.10;99.90;;;;;;5066576;28;20088;-85
2023/12/15 09:00:04;;;;;;;17.48;6.22;;;6.10;99.90;;;;;;5084185;28;20032;-84
2023/12/15 09:02:30;;;;;;;17.40;6.32;;;6.20;99.90;;;;;;5066994;28;20043;-84
2023/12/15 09:04:56;;;;;;;18.23;6.15;;;6.10;99.90;;;;;;5068833;28;20059;-84
2023/12/15 09:07:22;;;;;;;21.67;6.63;;;6.20;99.90;;;;;;5066616;28;20044;-84
2023/12/15 09:09:47;;;;;;;21.83;6.57;;;7.10;99.90;;;;;;5083251;28;20048;-84
2023/12/15 09:12:13;;;;;;;18.48;6.28;;;6.20;99.90;;;;;;5083178;28;20099;-84
2023/12/15 09:14:39;;;;;;;16.52;5.97;;;6.20;99.90;;;;;;5080808;28;20061;-84
2023/12/15 09:17:05;;;;;;;16.77;5.93;;;6.20;99.90;;;;;;5048032;28;20282;-84
2023/12/15 09:19:32;;;;;;;20.20;6.03;;;6.30;99.90;;;;;;5065591;28;20027;-84
2023/12/15 09:21:58;;;;;;;21.92;6.15;;;6.30;99.90;;;;;;5064123;28;20091;-85
2023/12/15 09:24:23;;;;;;;19.88;6.10;;;6.30;99.90;;;;;;5034185;28;20064;-84
2023/12/15 09:26:49;;;;;;;19.92;5.45;;;6.30;99.90;;;;;;5063611;28;20052;-84
2023/12/15 09:29:15;;;;;;;22.55;5.80;;;6.40;99.90;;;;;;5096605;28;20028;-84
2023/12/15 09:31:42;;;;;;;17.17;5.85;;;6.40;99.90;;;;;;5081131;28;20036;-84
2023/12/15 09:34:08;;;;;;;20.10;6.15;;;6.60;99.90;;;;;;5090508;28;20036;-84
2023/12/15 09:36:34;;;;;;;18.77;6.20;;;6.50;99.90;;;;;;5067259;28;20017;-83
2023/12/15 09:39:00;;;;;;;19.88;6.35;;;6.50;99.90;;;;;;5049251;28;20027;-84
2023/12/15 09:41:28;;;;;;;19.25;5.90;;;6.50;99.90;;;;;;5069279;28;20322;-84
2023/12/15 09:43:54;;;;;;;23.67;6.30;;;6.50;99.90;;;;;;5085478;28;20063;-84
2023/12/15 09:46:21;;;;;;;21.50;6.93;;;6.50;99.90;;;;;;5084254;28;20035;-85
2023/12/15 09:48:49;;;;;;;18.58;6.35;;;6.60;99.90;;;;;;5065773;28;20173;-84
2023/12/15 09:51:20;;;;;;;18.17;5.28;;;6.60;99.90;;;;;;5064624;28;20028;-84
2023/12/15 09:53:46;;;;;;;19.45;5.82;;;6.70;99.90;;;;;;5081730;28;20162;-86
2023/12/15 09:56:12;;;;;;;20.75;5.63;;;6.70;99.90;;;;;;5067211;28;20188;-85
2023/12/15 09:58:38;;;;;;;20.13;5.70;;;6.80;99.90;;;;;;5064046;28;20055;-84
2023/12/15 10:01:05;;;;;;;18.80;5.80;;;6.80;99.90;;;;;;5082865;28;20115;-84
2023/12/15 10:03:31;;;;;;;19.23;5.45;;;6.80;99.90;;;;;;5046326;28;20034;-85
2023/12/15 10:05:57;;;;;;;21.58;5.95;;;6.80;99.90;;;;;;5076924;28;20197;-84
2023/12/15 10:08:24;;;;;;;20.90;5.72;;;6.90;99.90;;;;;;5049697;28;20693;-84
2023/12/15 10:10:50;;;;;;;22.77;6.22;;;7.00;99.90;;;;;;5080072;28;20311;-85
2023/12/15 10:13:16;;;;;;;24.40;5.63;;;6.90;99.90;;;;;;5064268;28;20024;-84
2023/12/15 10:15:42;;;;;;;20.25;6.40;;;7.00;99.90;;;;;;5066137;28;20258;-84
2023/12/15 10:18:08;;;;;;;16.67;5.38;;;7.00;99.90;;;;;;5082506;28;20104;-83
2023/12/15 10:20:34;;;;;;;18.20;5.53;;;7.10;99.90;;;;;;5060867;28;20103;-84
2023/12/15 10:23:05;;;;;;;25.38;5.82;;;7.20;99.90;;;;;;5052351;28;20277;-84
2023/12/15 10:25:32;;;;;;;23.83;6.28;;;7.10;99.90;;;;;;5074746;28;20039;-84
2023/12/15 10:27:58;;;;;;;21.20;5.93;;;7.10;99.90;;;;;;5060327;28;20040;-84
2023/12/15 10:30:25;;;;;;;15.85;4.85;;;7.20;99.90;;;;;;5078905;28;20048;-85
2023/12/15 10:32:54;;;;;;;19.55;6.00;;;7.20;99.90;;;;;;5047237;28;20038;-84
2023/12/15 10:35:25;;;;;;;19.40;6.25;;;7.20;99.90;;;;;;5064744;28;20047;-84
2023/12/15 10:37:52;;;;;;;19.55;5.43;;;7.20;99.90;;;;;;5050094;28;20134;-84
2023/12/15 10:40:18;;;;;;;19.23;5.22;;;7.20;99.90;;;;;;5062891;28;20039;-85
2023/12/15 10:42:44;;;;;;;20.85;5.75;;;7.30;99.90;;;;;;5066900;28;20036;-84
2023/12/15 10:45:11;;;;;;;19.02;5.05;;;7.30;99.90;;;;;;5080153;28;20039;-84
2023/12/15 10:47:37;;;;;;;19.77;5.22;;;7.30;99.90;;;;;;5050538;28;20061;-84
2023/12/15 10:50:04;;;;;;;22.40;4.75;;;7.30;99.90;;;;;;5048044;28;20024;-84
2023/12/15 10:52:33;;;;;;;17.23;5.55;;;7.40;99.90;;;;;;5063706;28;20055;-84
2023/12/15 10:55:03;;;;;;;17.38;5.28;;;7.40;99.90;;;;;;5115008;28;20086;-84
2023/12/15 10:57:30;;;;;;;20.98;4.80;;;7.40;99.90;;;;;;5062753;28;20091;-84
2023/12/15 10:59:57;;;;;;;24.63;5.47;;;7.50;99.90;;;;;;5063388;28;20032;-84
2023/12/15 11:02:27;;;;;;;23.45;5.72;;;7.50;99.90;;;;;;5048502;28;20278;-84
2023/12/15 11:04:55;;;;;;;21.48;4.40;;;7.60;99.90;;;;;;5079512;28;20043;-84
2023/12/15 11:07:24;;;;;;;25.60;5.43;;;7.60;99.90;;;;;;5077653;28;20028;-85
2023/12/15 11:09:51;;;;;;;19.40;4.70;;;7.60;99.90;;;;;;5062768;28;20028;-84
2023/12/15 11:12:36;;;;;;;17.75;4.05;;;7.70;99.90;;;;;;5076935;28;20129;-84
2023/12/15 11:15:07;;;;;;;22.48;5.22;;;7.70;99.90;;;;;;5063104;28;20112;-84
2023/12/15 11:17:37;;;;;;;27.83;5.43;;;7.80;99.90;;;;;;5063788;28;20034;-84
2023/12/15 11:20:06;;;;;;;19.70;5.03;;;7.80;99.90;;;;;;5062647;28;20078;-84
2023/12/15 11:22:41;;;;;;;19.08;4.72;;;7.80;99.90;;;;;;5063308;28;20201;-84
2023/12/15 11:25:08;;;;;;;23.05;5.30;;;7.80;99.90;;;;;;5087315;28;20026;-84
2023/12/15 11:27:57;;;;;;;16.65;4.45;;;7.90;99.90;;;;;;5078544;28;20083;-83
2023/12/15 11:30:30;;;;;;;18.95;4.93;;;7.90;99.90;;;;;;5062325;28;20109;-84
2023/12/15 11:32:56;;;;;;;20.85;5.10;;;7.90;99.90;;;;;;5063201;28;20103;-84
2023/12/15 11:35:31;;;;;;;17.35;5.15;;;8.00;99.90;;;;;;5090203;28;20028;-84
2023/12/15 11:38:00;;;;;;;21.77;5.43;;;8.00;99.90;;;;;;5070262;28;20071;-84
2023/12/15 11:40:29;;;;;;;17.15;4.07;;;8.00;99.90;;;;;;5063018;28;20180;-85
2023/12/15 11:42:56;;;;;;;21.65;4.97;;;8.10;99.90;;;;;;5060782;28;20081;-84
2023/12/15 11:45:26;;;;;;;22.00;5.03;;;8.10;99.90;;;;;;5080932;28;20040;-84
2023/12/15 11:47:53;;;;;;;21.15;5.20;;;8.10;99.90;;;;;;5079741;28;20045;-84
2023/12/15 11:50:21;;;;;;;19.60;5.72;;;8.20;99.90;;;;;;5078808;28;20174;-84
2023/12/15 11:52:48;;;;;;;17.95;4.47;;;8.20;99.90;;;;;;5047831;28;20043;-84
2023/12/15 11:55:15;;;;;;;23.42;4.95;;;8.30;99.90;;;;;;5062410;28;20059;-85
2023/12/15 11:57:40;;;;;;;19.48;5.00;;;8.40;99.90;;;;;;5029238;28;20028;-84
2023/12/15 12:00:09;;;;;;;18.55;4.43;;;8.40;99.90;;;;;;5075134;28;20032;-84
2023/12/15 12:02:36;;;;;;;19.30;5.25;;;8.50;99.90;;;;;;5063051;28;20035;-84
2023/12/15 12:05:02;;;;;;;21.85;4.43;;;8.50;99.90;;;;;;5078723;28;20077;-84
2023/12/15 12:07:28;;;;;;;17.58;4.60;;;8.50;99.90;;;;;;5063419;28;20048;-84
2023/12/15 12:09:54;;;;;;;19.52;4.55;;;8.60;99.90;;;;;;5062220;28;20146;-85
2023/12/15 12:12:19;;;;;;;22.73;6.97;;;8.70;99.90;;;;;;5061239;28;20044;-84
2023/12/15 12:14:46;;;;;;;18.17;4.82;;;8.70;99.90;;;;;;5059158;28;20044;-85
2023/12/15 12:17:13;;;;;;;20.10;4.97;;;8.70;99.90;;;;;;5077793;28;20036;-85
2023/12/15 12:19:43;;;;;;;19.52;5.38;;;8.80;99.90;;;;;;5044553;28;20039;-84
2023/12/15 12:22:13;;;;;;;18.55;5.15;;;8.90;99.90;;;;;;5055780;28;20043;-84
2023/12/15 12:24:39;;;;;;;21.20;5.53;;;8.90;99.90;;;;;;5082844;28;20051;-84
2023/12/15 12:27:08;;;;;;;20.73;5.30;;;9.00;99.90;;;;;;5082497;28;20103;-85
2023/12/15 12:29:39;;;;;;;21.75;4.68;;;9.00;99.90;;;;;;5063400;28;20086;-85
2023/12/15 12:32:06;;;;;;;18.73;4.93;;;9.10;99.90;;;;;;5085608;28;20125;-85
2023/12/15 12:34:32;;;;;;;21.20;4.57;;;9.20;99.90;;;;;;5064764;28;20036;-85
2023/12/15 12:36:58;;;;;;;16.50;4.97;;;9.20;99.90;;;;;;5082168;28;20059;-85
2023/12/15 12:39:24;;;;;;;19.33;5.32;;;9.10;99.90;;;;;;5098157;28;20028;-84